createdAt,value
2023-03-27T00:06:45.522Z,72.80
2023-03-27T00:17:06.949Z,72.11
2023-03-27T00:27:28.309Z,73.31
2023-03-27T00:37:49.756Z,73.17
2023-03-27T00:48:11.134Z,73.37
2023-03-27T00:58:36.942Z,72.08
2023-03-27T01:08:58.318Z,74.44
2023-03-27T01:19:42.772Z,75.75
2023-03-27T01:30:24.389Z,75.85
2023-03-27T01:41:05.990Z,75.47
2023-03-27T01:51:34.118Z,75.68
2023-03-27T02:02:03.664Z,75.83
2023-03-27T02:12:32.032Z,75.68
2023-03-27T02:22:53.855Z,76.16
2023-03-27T02:33:27.429Z,76.21
2023-03-27T02:43:57.099Z,76.32
2023-03-27T02:54:25.966Z,75.60
2023-03-27T03:04:56.958Z,76.87
2023-03-27T03:15:18.635Z,77.80
2023-03-27T03:25:40.003Z,78.15
2023-03-27T03:36:02.086Z,78.51
2023-03-27T03:46:23.721Z,78.67
2023-03-27T03:56:45.102Z,78.77
2023-03-27T04:07:06.699Z,79.13
2023-03-27T04:17:28.253Z,79.26
2023-03-27T04:27:52.615Z,79.90
2023-03-27T04:38:14.343Z,80.01
2023-03-27T04:48:38.307Z,80.41
2023-03-27T04:59:03.756Z,80.43
2023-03-27T05:09:25.746Z,80.70
2023-03-27T05:19:47.108Z,80.90
2023-03-27T05:30:08.711Z,80.63
2023-03-27T05:40:31.408Z,80.85
2023-03-27T05:50:52.765Z,80.45
2023-03-27T06:01:14.143Z,80.29
2023-03-27T06:11:35.857Z,80.12
2023-03-27T06:21:57.237Z,80.04
2023-03-27T06:32:18.660Z,80.47
2023-03-27T06:42:41.197Z,80.62
2023-03-27T06:53:10.046Z,80.17
2023-03-27T07:03:37.368Z,79.75
2023-03-27T07:13:58.829Z,79.64
2023-03-27T07:24:20.179Z,78.84
2023-03-27T07:34:42.312Z,77.76
2023-03-27T07:45:04.638Z,75.21
2023-03-27T07:55:29.552Z,74.99
2023-03-27T08:05:55.974Z,74.39
2023-03-27T08:16:18.544Z,75.93
2023-03-27T08:26:39.953Z,74.91
2023-03-27T08:37:01.977Z,72.20
2023-03-27T08:47:28.380Z,71.20
2023-03-27T08:57:51.111Z,71.96
2023-03-27T09:08:32.723Z,70.62
2023-03-27T09:19:03.267Z,76.92
2023-03-27T09:29:29.687Z,75.48
2023-03-27T09:39:52.272Z,69.92
2023-03-27T09:50:25.602Z,69.88
2023-03-27T10:00:48.506Z,69.63
2023-03-27T10:11:15.326Z,74.04
2023-03-27T10:21:40.376Z,75.45
2023-03-27T10:32:04.154Z,74.20
2023-03-27T10:42:31.289Z,76.52
2023-03-27T10:52:52.647Z,78.84
2023-03-27T11:03:23.199Z,78.50
2023-03-27T11:13:46.103Z,76.89
2023-03-27T11:24:15.479Z,68.99
2023-03-27T11:34:53.832Z,71.28
2023-03-27T11:45:17.308Z,73.62
2023-03-27T11:55:46.293Z,76.07
2023-03-27T12:06:19.057Z,76.12
2023-03-27T12:16:40.703Z,74.31
2023-03-27T12:27:21.857Z,70.28
2023-03-27T12:37:47.657Z,74.52
2023-03-27T12:48:09.887Z,76.81
2023-03-27T12:58:33.788Z,77.39
2023-03-27T13:09:08.382Z,74.74
2023-03-27T13:19:29.769Z,73.87
2023-03-27T13:29:51.764Z,66.84
2023-03-27T13:40:24.712Z,61.42
2023-03-27T13:50:46.193Z,63.23
2023-03-27T14:01:17.035Z,61.89
2023-03-27T14:11:53.853Z,64.54
2023-03-27T14:22:34.175Z,64.35
2023-03-27T14:32:56.415Z,57.83
2023-03-27T14:43:18.985Z,60.40
2023-03-27T14:53:44.055Z,60.41
2023-03-27T15:04:07.354Z,59.15
2023-03-27T15:14:29.915Z,58.49
2023-03-27T15:25:27.014Z,62.75
2023-03-27T15:35:51.773Z,60.33
2023-03-27T15:46:18.261Z,58.59
2023-03-27T15:56:42.323Z,61.24
2023-03-27T16:07:06.311Z,70.26
2023-03-27T16:17:27.698Z,74.39
2023-03-27T16:27:51.149Z,73.69
2023-03-27T16:38:13.915Z,73.26
2023-03-27T16:48:35.719Z,70.32
2023-03-27T16:58:57.113Z,68.11
2023-03-27T17:09:18.656Z,67.59
2023-03-27T17:19:40.187Z,64.62
2023-03-27T17:30:01.585Z,65.99
2023-03-27T17:40:23.504Z,65.39
2023-03-27T17:50:51.911Z,67.38
2023-03-27T18:01:21.231Z,67.10
2023-03-27T18:11:42.636Z,67.82
2023-03-27T18:22:04.073Z,67.79
2023-03-27T18:32:26.185Z,66.74
2023-03-27T18:42:47.700Z,67.03
2023-03-27T18:53:09.264Z,68.88
2023-03-27T19:03:34.677Z,67.83
2023-03-27T19:13:56.689Z,69.50
2023-03-27T19:24:18.072Z,68.52
2023-03-27T19:34:42.907Z,69.96
2023-03-27T19:45:05.246Z,70.51
2023-03-27T19:55:26.676Z,70.28
2023-03-27T20:05:49.022Z,70.47
2023-03-27T20:16:14.396Z,71.16
2023-03-27T20:26:39.449Z,72.04
2023-03-27T20:37:00.905Z,72.19
2023-03-27T20:47:22.506Z,71.08
2023-03-27T20:57:44.131Z,72.15
2023-03-27T21:08:07.251Z,72.84
2023-03-27T21:18:28.777Z,74.13
2023-03-27T21:28:51.447Z,73.21
2023-03-27T21:39:12.850Z,74.34
2023-03-27T21:49:35.717Z,74.30
2023-03-27T21:59:57.767Z,79.14
2023-03-27T22:10:19.159Z,79.37
2023-03-27T22:20:40.864Z,78.60
2023-03-27T22:31:04.428Z,79.48
2023-03-27T22:41:25.906Z,78.22
2023-03-27T22:51:47.241Z,79.46
2023-03-27T23:02:08.690Z,79.36
2023-03-27T23:12:30.056Z,78.71
2023-03-27T23:22:51.398Z,78.84
2023-03-27T23:33:12.778Z,78.55
2023-03-27T23:43:34.635Z,78.81
2023-03-27T23:53:55.966Z,80.47
